ADDS METAR Data INFO
IDs: Format: Raw Decoded Include TAF

Data at: 1932 UTC 19 Jul 2018

KSBD 191850Z 00000KT 5SM HZ FEW050 35/17 A2995
KSBD 191750Z 00000KT 5SM HZ FEW050 32/16 A2998
KSBD 191650Z 00000KT 5SM HZ SKC 29/17 A2999
KSBD 191550Z 00000KT 4SM HZ SKC 26/17 A3000
KSBD 191450Z 00000KT 4SM HZ SKC 24/17 A3000
KSBD 191350Z 00000KT 4SM HZ SKC 23/17 A3000
KSBD 191240Z AUTO 00000KT 10SM CLR 22/17 A2999 RMK AO2 T02150165
KSBD 191220Z AUTO 00000KT 10SM CLR 22/17 A2999 RMK AO2 T02150166
KSBD 191200Z AUTO 00000KT 10SM CLR 22/17 A2998 RMK AO2 T02150166
KSBD 191140Z AUTO 00000KT 10SM CLR 21/17 A2997 RMK AO2 T02130166
KSBD 191120Z AUTO 00000KT 10SM CLR 22/17 A2997 RMK AO2 T02150167
KSBD 191100Z AUTO 24004KT 10SM CLR 22/17 A2997 RMK AO2 T02150165
KSBD 191040Z AUTO 00000KT 10SM CLR 22/17 A2997 RMK AO2 T02160166
KSBD 191020Z AUTO 25003KT 10SM CLR 22/17 A2997 RMK AO2 T02160166
KSBD 191000Z AUTO 26004KT 10SM CLR 22/17 A2997 RMK AO2 T02170166
KSBD 190940Z AUTO 24005KT 10SM CLR 22/17 A2997 RMK AO2 T02200168
KSBD 190920Z AUTO 25003KT 10SM CLR 22/17 A2997 RMK AO2 T02200167
KSBD 190900Z AUTO 26004KT 10SM CLR 22/17 A2998 RMK AO2 T02210168
KSBD 190840Z AUTO 25005KT 10SM CLR 22/17 A2999 RMK AO2 T02230168
KSBD 190820Z AUTO 25005KT 10SM CLR 23/17 A2999 RMK AO2 T02250168
KSBD 190800Z AUTO 24005KT 10SM CLR 23/17 A3000 RMK AO2 T02270168
KSBD 190740Z AUTO 24005KT 10SM CLR 23/17 A3000 RMK AO2 T02300170
KSBD 190720Z AUTO 25008KT 10SM CLR 23/17 A3000 RMK AO2 T02320170
KSBD 190700Z AUTO 24005KT 10SM CLR 24/17 A3001 RMK AO2 T02350170
KSBD 190640Z AUTO 25006KT 10SM CLR 24/17 A3001 RMK AO2 T02380170
KSBD 190620Z AUTO 25006KT 10SM CLR 24/17 A3001 RMK AO2 T02410170
KSBD 190600Z AUTO 25007KT 10SM CLR 25/17 A3001 RMK AO2 T02470170
KSBD 190540Z AUTO 27006KT 10SM CLR 25/17 A3001 RMK AO2 T02510170
KSBD 190520Z AUTO 27007KT 10SM CLR 26/17 A3001 RMK AO2 T02570170
KSBD 190500Z AUTO 25008KT 10SM CLR 26/17 A3000 RMK AO2 T02610170
KSBD 190440Z AUTO 25007KT 10SM CLR 27/17 A2999 RMK AO2 T02660170
KSBD 190350Z 24007KT 7SM SCT080 28/17 A2996 RMK LAST
KSBD 190250Z 23008KT 7SM SCT080 30/17 A2995
KSBD 190150Z 23010KT 7SM FEW060 BKN150 33/16 A2994
KSBD 190050Z 24012KT 6SM HZ FEW060 BKN150 34/16 A2992
KSBD 182350Z 27010G16KT 6SM HZ SCT060 BKN150 37/16 A2993
KSBD 182245Z 25010KT 5SM HZ SCT046 SCT055 BKN085 37/17 A2994
KSBD 182150Z 23012KT 5SM HZ SCT060 BKN150 36/17 A2996
KSBD 182050Z 27006KT 5SM HZ SCT060 BKN150 33/17 A2997
KSBD 181950Z 24007KT 4SM HZ SCT060 BKN150 32/17 A3000
KSBD 181850Z 21009KT 4SM HZ SCT060 BKN150 30/18 A3002
KSBD 181747Z 21004KT 3SM HZ SCT100 BKN200 26/18 A3004
KSBD 181646Z 25003KT 3SM HZ SCT100 BKN200 25/19 A3003
KSBD 181445Z 00000KT 5SM HZ SCT100 OVC200 23/18 A3000
KSBD 181400Z 00000KT 6SM HZ SCT100 OVC200 22/18 A2999
KSBD 181240Z AUTO 00000KT 7SM CLR 21/18 A3001 RMK AO2 T02140180
KSBD 181220Z AUTO 21004KT 10SM CLR 22/18 A3001 RMK AO2 T02170180
KSBD 181200Z AUTO 00000KT 10SM SCT120 22/18 A3002 RMK AO2 T02200180
KSBD 181140Z AUTO 25006KT 7SM -RA SCT033 SCT044 BKN120 22/18 A3003 RMK AO2 P0003 T02210177
KSBD 181120Z AUTO 28005KT 10SM BKN120 23/17 A3003 RMK AO2 T02250170
KSBD 181100Z AUTO 00000KT 10SM SCT110 22/17 A3002 RMK AO2 T02220170
KSBD 181040Z AUTO 20003KT 10SM SCT110 22/17 A3001 RMK AO2 T02210170
KSBD 181020Z AUTO 24005KT 10SM CLR 22/17 A2999 RMK AO2 T02200170
KSBD 181000Z AUTO 24003KT 10SM CLR 22/17 A2999 RMK AO2 T02180168
KSBD 180940Z AUTO 24004KT 10SM CLR 22/17 A2999 RMK AO2 T02200168
KSBD 180920Z AUTO 25004KT 10SM CLR 22/17 A2999 RMK AO2 T02200167
KSBD 180900Z AUTO 29004KT 10SM CLR 22/17 A2999 RMK AO2 T02210166
KSBD 180840Z AUTO 26003KT 10SM CLR 22/17 A3000 RMK AO2 T02220166
KSBD 180820Z AUTO 24004KT 10SM CLR 23/17 A2999 RMK AO2 T02260167
KSBD 180800Z AUTO 26005KT 10SM CLR 23/17 A2999 RMK AO2 T02270165
KSBD 180740Z AUTO 26005KT 10SM CLR 23/17 A2999 RMK AO2 T02310166